sensor_id;sensor_type;location;lat;lon;timestamp;P1;durP1;ratioP1;P2;durP2;ratioP2
21661;SDS011;10992;48.170;8.596;2023-07-09T00:01:15;6.88;;;4.57;;
21661;SDS011;10992;48.170;8.596;2023-07-09T00:03:44;12.13;;;4.75;;
21661;SDS011;10992;48.170;8.596;2023-07-09T00:06:12;6.63;;;4.40;;
21661;SDS011;10992;48.170;8.596;2023-07-09T00:08:41;9.05;;;4.65;;
21661;SDS011;10992;48.170;8.596;2023-07-09T00:11:14;6.30;;;4.20;;
21661;SDS011;10992;48.170;8.596;2023-07-09T00:13:41;6.57;;;4.03;;
21661;SDS011;10992;48.170;8.596;2023-07-09T00:16:12;9.18;;;4.45;;
21661;SDS011;10992;48.170;8.596;2023-07-09T00:18:49;6.45;;;4.88;;
21661;SDS011;10992;48.170;8.596;2023-07-09T00:21:16;6.68;;;4.30;;
21661;SDS011;10992;48.170;8.596;2023-07-09T00:23:46;5.22;;;4.20;;
21661;SDS011;10992;48.170;8.596;2023-07-09T00:26:16;6.93;;;4.57;;
21661;SDS011;10992;48.170;8.596;2023-07-09T00:28:44;6.15;;;4.43;;
21661;SDS011;10992;48.170;8.596;2023-07-09T00:31:12;7.55;;;5.20;;
21661;SDS011;10992;48.170;8.596;2023-07-09T00:33:44;9.05;;;4.55;;
21661;SDS011;10992;48.170;8.596;2023-07-09T00:36:15;6.38;;;4.55;;
21661;SDS011;10992;48.170;8.596;2023-07-09T00:38:46;6.03;;;4.43;;
21661;SDS011;10992;48.170;8.596;2023-07-09T00:41:16;8.43;;;4.82;;
21661;SDS011;10992;48.170;8.596;2023-07-09T00:43:46;5.82;;;4.45;;
21661;SDS011;10992;48.170;8.596;2023-07-09T00:48:40;6.30;;;4.47;;
21661;SDS011;10992;48.170;8.596;2023-07-09T00:51:12;7.18;;;5.05;;
21661;SDS011;10992;48.170;8.596;2023-07-09T00:53:42;6.93;;;4.95;;
21661;SDS011;10992;48.170;8.596;2023-07-09T00:56:26;9.57;;;4.97;;
21661;SDS011;10992;48.170;8.596;2023-07-09T00:58:58;6.53;;;5.03;;
21661;SDS011;10992;48.170;8.596;2023-07-09T01:01:31;7.78;;;5.18;;
21661;SDS011;10992;48.170;8.596;2023-07-09T01:03:59;8.57;;;5.45;;
21661;SDS011;10992;48.170;8.596;2023-07-09T01:06:36;7.15;;;5.13;;
21661;SDS011;10992;48.170;8.596;2023-07-09T01:09:06;11.50;;;5.38;;
21661;SDS011;10992;48.170;8.596;2023-07-09T01:11:33;7.78;;;5.00;;
21661;SDS011;10992;48.170;8.596;2023-07-09T01:14:02;10.55;;;4.97;;
21661;SDS011;10992;48.170;8.596;2023-07-09T01:16:35;7.55;;;5.00;;
21661;SDS011;10992;48.170;8.596;2023-07-09T01:19:05;8.48;;;5.30;;
21661;SDS011;10992;48.170;8.596;2023-07-09T01:21:33;7.47;;;5.30;;
21661;SDS011;10992;48.170;8.596;2023-07-09T01:24:13;6.97;;;4.90;;
21661;SDS011;10992;48.170;8.596;2023-07-09T01:27:05;5.53;;;4.15;;
21661;SDS011;10992;48.170;8.596;2023-07-09T01:29:33;6.82;;;4.50;;
21661;SDS011;10992;48.170;8.596;2023-07-09T01:32:03;6.60;;;4.72;;
21661;SDS011;10992;48.170;8.596;2023-07-09T01:34:30;7.65;;;5.03;;
21661;SDS011;10992;48.170;8.596;2023-07-09T01:36:58;7.15;;;4.90;;
21661;SDS011;10992;48.170;8.596;2023-07-09T01:39:28;7.97;;;4.88;;
21661;SDS011;10992;48.170;8.596;2023-07-09T01:41:55;7.20;;;5.22;;
21661;SDS011;10992;48.170;8.596;2023-07-09T01:44:23;8.45;;;4.60;;
21661;SDS011;10992;48.170;8.596;2023-07-09T01:46:50;7.65;;;4.68;;
21661;SDS011;10992;48.170;8.596;2023-07-09T01:49:17;5.90;;;4.63;;
21661;SDS011;10992;48.170;8.596;2023-07-09T01:51:45;7.70;;;5.20;;
21661;SDS011;10992;48.170;8.596;2023-07-09T01:54:13;7.97;;;5.40;;
21661;SDS011;10992;48.170;8.596;2023-07-09T01:56:42;7.45;;;4.97;;
21661;SDS011;10992;48.170;8.596;2023-07-09T01:59:09;10.00;;;5.82;;
21661;SDS011;10992;48.170;8.596;2023-07-09T02:01:37;8.70;;;4.68;;
21661;SDS011;10992;48.170;8.596;2023-07-09T02:04:04;8.82;;;5.32;;
21661;SDS011;10992;48.170;8.596;2023-07-09T02:06:31;6.03;;;5.10;;
21661;SDS011;10992;48.170;8.596;2023-07-09T02:08:58;7.82;;;5.03;;
21661;SDS011;10992;48.170;8.596;2023-07-09T02:11:25;8.23;;;5.30;;
21661;SDS011;10992;48.170;8.596;2023-07-09T02:13:52;9.65;;;5.88;;
21661;SDS011;10992;48.170;8.596;2023-07-09T02:16:19;6.95;;;4.78;;
21661;SDS011;10992;48.170;8.596;2023-07-09T02:18:46;8.55;;;4.90;;
21661;SDS011;10992;48.170;8.596;2023-07-09T02:21:13;7.53;;;5.00;;
21661;SDS011;10992;48.170;8.596;2023-07-09T02:23:40;7.55;;;5.07;;
21661;SDS011;10992;48.170;8.596;2023-07-09T02:26:07;7.88;;;5.50;;
21661;SDS011;10992;48.170;8.596;2023-07-09T02:28:35;8.18;;;4.68;;
21661;SDS011;10992;48.170;8.596;2023-07-09T02:31:01;7.05;;;5.13;;
21661;SDS011;10992;48.170;8.596;2023-07-09T02:33:30;7.30;;;5.47;;
21661;SDS011;10992;48.170;8.596;2023-07-09T02:35:59;9.02;;;5.47;;
21661;SDS011;10992;48.170;8.596;2023-07-09T02:38:26;6.90;;;5.20;;
21661;SDS011;10992;48.170;8.596;2023-07-09T02:40:53;6.60;;;5.38;;
21661;SDS011;10992;48.170;8.596;2023-07-09T02:43:20;6.28;;;4.95;;
21661;SDS011;10992;48.170;8.596;2023-07-09T02:45:47;6.47;;;4.85;;
21661;SDS011;10992;48.170;8.596;2023-07-09T02:48:14;8.35;;;5.07;;
21661;SDS011;10992;48.170;8.596;2023-07-09T02:50:41;7.20;;;4.68;;
21661;SDS011;10992;48.170;8.596;2023-07-09T02:53:08;8.35;;;5.40;;
21661;SDS011;10992;48.170;8.596;2023-07-09T02:55:35;7.93;;;5.57;;
21661;SDS011;10992;48.170;8.596;2023-07-09T02:58:02;4.95;;;4.13;;
21661;SDS011;10992;48.170;8.596;2023-07-09T03:00:29;7.43;;;4.28;;
21661;SDS011;10992;48.170;8.596;2023-07-09T03:02:57;8.60;;;5.15;;
21661;SDS011;10992;48.170;8.596;2023-07-09T03:05:24;5.55;;;4.75;;
21661;SDS011;10992;48.170;8.596;2023-07-09T03:07:51;9.35;;;5.03;;
21661;SDS011;10992;48.170;8.596;2023-07-09T03:10:18;7.20;;;4.63;;
21661;SDS011;10992;48.170;8.596;2023-07-09T03:12:45;7.03;;;4.93;;
21661;SDS011;10992;48.170;8.596;2023-07-09T03:15:12;7.55;;;5.22;;
21661;SDS011;10992;48.170;8.596;2023-07-09T03:17:39;8.60;;;5.57;;
21661;SDS011;10992;48.170;8.596;2023-07-09T03:20:06;7.38;;;5.00;;
21661;SDS011;10992;48.170;8.596;2023-07-09T03:22:34;6.53;;;4.85;;
21661;SDS011;10992;48.170;8.596;2023-07-09T03:25:01;7.57;;;5.45;;
21661;SDS011;10992;48.170;8.596;2023-07-09T03:27:28;10.60;;;6.03;;
21661;SDS011;10992;48.170;8.596;2023-07-09T03:29:54;6.53;;;4.63;;
21661;SDS011;10992;48.170;8.596;2023-07-09T03:32:21;7.43;;;4.90;;
21661;SDS011;10992;48.170;8.596;2023-07-09T03:34:49;8.90;;;5.07;;
21661;SDS011;10992;48.170;8.596;2023-07-09T03:37:15;9.88;;;5.18;;
21661;SDS011;10992;48.170;8.596;2023-07-09T03:39:42;10.48;;;5.82;;
21661;SDS011;10992;48.170;8.596;2023-07-09T03:42:12;6.70;;;5.05;;
21661;SDS011;10992;48.170;8.596;2023-07-09T03:44:38;7.60;;;5.40;;
21661;SDS011;10992;48.170;8.596;2023-07-09T03:47:07;8.20;;;5.03;;
21661;SDS011;10992;48.170;8.596;2023-07-09T03:49:34;6.45;;;4.63;;
21661;SDS011;10992;48.170;8.596;2023-07-09T03:52:00;7.75;;;4.85;;
21661;SDS011;10992;48.170;8.596;2023-07-09T03:54:28;6.93;;;4.70;;
21661;SDS011;10992;48.170;8.596;2023-07-09T03:56:54;8.05;;;5.18;;
21661;SDS011;10992;48.170;8.596;2023-07-09T03:59:21;4.78;;;4.20;;
21661;SDS011;10992;48.170;8.596;2023-07-09T04:01:48;7.97;;;5.30;;
21661;SDS011;10992;48.170;8.596;2023-07-09T04:04:15;6.38;;;5.25;;
21661;SDS011;10992;48.170;8.596;2023-07-09T04:06:46;6.80;;;4.65;;
21661;SDS011;10992;48.170;8.596;2023-07-09T04:09:13;6.97;;;4.95;;
21661;SDS011;10992;48.170;8.596;2023-07-09T04:11:40;6.43;;;4.63;;
21661;SDS011;10992;48.170;8.596;2023-07-09T04:14:07;9.18;;;4.63;;
21661;SDS011;10992;48.170;8.596;2023-07-09T04:16:34;5.18;;;4.47;;
21661;SDS011;10992;48.170;8.596;2023-07-09T04:19:02;7.30;;;4.85;;
21661;SDS011;10992;48.170;8.596;2023-07-09T04:21:29;9.95;;;5.38;;
21661;SDS011;10992;48.170;8.596;2023-07-09T04:23:55;8.13;;;5.43;;
21661;SDS011;10992;48.170;8.596;2023-07-09T04:26:22;5.85;;;4.50;;
21661;SDS011;10992;48.170;8.596;2023-07-09T04:28:49;5.53;;;4.43;;
21661;SDS011;10992;48.170;8.596;2023-07-09T04:31:16;6.32;;;4.40;;
21661;SDS011;10992;48.170;8.596;2023-07-09T04:33:43;5.70;;;4.25;;
21661;SDS011;10992;48.170;8.596;2023-07-09T04:36:11;7.43;;;5.15;;
21661;SDS011;10992;48.170;8.596;2023-07-09T04:38:39;8.15;;;4.97;;
21661;SDS011;10992;48.170;8.596;2023-07-09T04:41:06;6.40;;;4.78;;
21661;SDS011;10992;48.170;8.596;2023-07-09T04:43:33;6.22;;;4.70;;
21661;SDS011;10992;48.170;8.596;2023-07-09T04:46:00;9.48;;;4.93;;
21661;SDS011;10992;48.170;8.596;2023-07-09T04:48:27;7.53;;;4.72;;
21661;SDS011;10992;48.170;8.596;2023-07-09T04:50:54;6.38;;;4.80;;
21661;SDS011;10992;48.170;8.596;2023-07-09T04:53:21;6.97;;;4.68;;
21661;SDS011;10992;48.170;8.596;2023-07-09T04:55:50;9.40;;;5.50;;
21661;SDS011;10992;48.170;8.596;2023-07-09T04:58:17;7.00;;;5.20;;
21661;SDS011;10992;48.170;8.596;2023-07-09T05:00:45;7.03;;;4.57;;
21661;SDS011;10992;48.170;8.596;2023-07-09T05:03:12;7.53;;;5.00;;
21661;SDS011;10992;48.170;8.596;2023-07-09T05:05:46;7.68;;;4.93;;
21661;SDS011;10992;48.170;8.596;2023-07-09T05:08:14;6.32;;;3.92;;
21661;SDS011;10992;48.170;8.596;2023-07-09T05:10:41;7.47;;;3.35;;
21661;SDS011;10992;48.170;8.596;2023-07-09T05:13:09;5.43;;;3.75;;
21661;SDS011;10992;48.170;8.596;2023-07-09T05:15:39;9.10;;;4.30;;
21661;SDS011;10992;48.170;8.596;2023-07-09T05:18:07;7.85;;;4.13;;
21661;SDS011;10992;48.170;8.596;2023-07-09T05:20:34;6.15;;;4.38;;
21661;SDS011;10992;48.170;8.596;2023-07-09T05:23:02;6.45;;;3.90;;
21661;SDS011;10992;48.170;8.596;2023-07-09T05:25:29;6.10;;;3.40;;
21661;SDS011;10992;48.170;8.596;2023-07-09T05:27:56;5.88;;;4.05;;
21661;SDS011;10992;48.170;8.596;2023-07-09T05:30:23;5.35;;;3.42;;
21661;SDS011;10992;48.170;8.596;2023-07-09T05:32:49;5.00;;;3.78;;
21661;SDS011;10992;48.170;8.596;2023-07-09T05:35:16;5.53;;;3.70;;
21661;SDS011;10992;48.170;8.596;2023-07-09T05:37:43;4.97;;;3.60;;
21661;SDS011;10992;48.170;8.596;2023-07-09T05:40:10;6.55;;;3.88;;
21661;SDS011;10992;48.170;8.596;2023-07-09T05:42:37;5.60;;;3.38;;
21661;SDS011;10992;48.170;8.596;2023-07-09T05:45:04;4.85;;;3.65;;
21661;SDS011;10992;48.170;8.596;2023-07-09T05:47:31;5.93;;;3.78;;
21661;SDS011;10992;48.170;8.596;2023-07-09T05:49:59;5.40;;;3.78;;
21661;SDS011;10992;48.170;8.596;2023-07-09T05:52:25;4.38;;;3.15;;
21661;SDS011;10992;48.170;8.596;2023-07-09T05:54:55;7.63;;;3.85;;
21661;SDS011;10992;48.170;8.596;2023-07-09T05:57:22;6.40;;;3.80;;
21661;SDS011;10992;48.170;8.596;2023-07-09T05:59:49;4.25;;;3.10;;
21661;SDS011;10992;48.170;8.596;2023-07-09T06:02:17;7.03;;;4.00;;
21661;SDS011;10992;48.170;8.596;2023-07-09T06:04:47;7.07;;;3.17;;
21661;SDS011;10992;48.170;8.596;2023-07-09T06:07:16;6.75;;;3.58;;
21661;SDS011;10992;48.170;8.596;2023-07-09T06:09:46;5.72;;;3.53;;
21661;SDS011;10992;48.170;8.596;2023-07-09T06:12:14;8.52;;;3.80;;
21661;SDS011;10992;48.170;8.596;2023-07-09T06:14:41;5.07;;;3.38;;
21661;SDS011;10992;48.170;8.596;2023-07-09T06:17:08;5.85;;;3.67;;
21661;SDS011;10992;48.170;8.596;2023-07-09T06:19:35;5.50;;;3.60;;
21661;SDS011;10992;48.170;8.596;2023-07-09T06:22:01;5.93;;;3.67;;
21661;SDS011;10992;48.170;8.596;2023-07-09T06:24:28;3.92;;;3.17;;
21661;SDS011;10992;48.170;8.596;2023-07-09T06:26:55;5.00;;;3.45;;
21661;SDS011;10992;48.170;8.596;2023-07-09T06:29:22;6.80;;;3.47;;
21661;SDS011;10992;48.170;8.596;2023-07-09T06:31:49;4.88;;;3.80;;
21661;SDS011;10992;48.170;8.596;2023-07-09T06:34:16;6.30;;;3.45;;
21661;SDS011;10992;48.170;8.596;2023-07-09T06:36:43;5.53;;;3.53;;
21661;SDS011;10992;48.170;8.596;2023-07-09T06:39:10;5.20;;;3.63;;
21661;SDS011;10992;48.170;8.596;2023-07-09T06:41:37;6.25;;;3.78;;
21661;SDS011;10992;48.170;8.596;2023-07-09T06:44:08;6.60;;;3.70;;
21661;SDS011;10992;48.170;8.596;2023-07-09T06:46:35;4.70;;;3.30;;
21661;SDS011;10992;48.170;8.596;2023-07-09T06:49:03;7.80;;;3.20;;
21661;SDS011;10992;48.170;8.596;2023-07-09T06:51:32;3.53;;;2.92;;
21661;SDS011;10992;48.170;8.596;2023-07-09T06:54:00;7.43;;;3.45;;
21661;SDS011;10992;48.170;8.596;2023-07-09T06:56:27;4.55;;;3.33;;
21661;SDS011;10992;48.170;8.596;2023-07-09T06:58:54;4.15;;;3.13;;
21661;SDS011;10992;48.170;8.596;2023-07-09T07:01:20;6.65;;;3.60;;
21661;SDS011;10992;48.170;8.596;2023-07-09T07:03:48;6.07;;;3.38;;
21661;SDS011;10992;48.170;8.596;2023-07-09T07:06:15;5.80;;;3.60;;
21661;SDS011;10992;48.170;8.596;2023-07-09T07:08:42;6.07;;;3.65;;
21661;SDS011;10992;48.170;8.596;2023-07-09T07:11:09;6.05;;;3.28;;
21661;SDS011;10992;48.170;8.596;2023-07-09T07:13:37;6.70;;;2.85;;
21661;SDS011;10992;48.170;8.596;2023-07-09T07:16:06;4.55;;;3.20;;
21661;SDS011;10992;48.170;8.596;2023-07-09T07:18:35;4.80;;;3.10;;
21661;SDS011;10992;48.170;8.596;2023-07-09T07:21:02;5.15;;;3.30;;
21661;SDS011;10992;48.170;8.596;2023-07-09T07:23:30;4.72;;;2.85;;
21661;SDS011;10992;48.170;8.596;2023-07-09T07:25:57;4.60;;;3.22;;
21661;SDS011;10992;48.170;8.596;2023-07-09T07:28:24;5.15;;;3.50;;
21661;SDS011;10992;48.170;8.596;2023-07-09T07:30:58;4.35;;;3.10;;
21661;SDS011;10992;48.170;8.596;2023-07-09T07:33:26;3.95;;;2.53;;
21661;SDS011;10992;48.170;8.596;2023-07-09T07:35:53;4.60;;;2.80;;
21661;SDS011;10992;48.170;8.596;2023-07-09T07:38:39;5.28;;;3.05;;
21661;SDS011;10992;48.170;8.596;2023-07-09T07:41:06;4.45;;;2.97;;
21661;SDS011;10992;48.170;8.596;2023-07-09T07:43:33;8.02;;;3.20;;
21661;SDS011;10992;48.170;8.596;2023-07-09T07:46:00;5.38;;;3.03;;
21661;SDS011;10992;48.170;8.596;2023-07-09T07:48:28;7.32;;;3.20;;
21661;SDS011;10992;48.170;8.596;2023-07-09T07:50:59;4.88;;;3.08;;
21661;SDS011;10992;48.170;8.596;2023-07-09T07:53:28;3.80;;;2.78;;
21661;SDS011;10992;48.170;8.596;2023-07-09T07:55:57;6.13;;;3.17;;
21661;SDS011;10992;48.170;8.596;2023-07-09T07:58:24;6.45;;;3.08;;
21661;SDS011;10992;48.170;8.596;2023-07-09T08:00:54;6.72;;;3.25;;
21661;SDS011;10992;48.170;8.596;2023-07-09T08:03:23;5.72;;;3.17;;
21661;SDS011;10992;48.170;8.596;2023-07-09T08:05:51;5.22;;;2.80;;
21661;SDS011;10992;48.170;8.596;2023-07-09T08:08:18;5.38;;;2.75;;
21661;SDS011;10992;48.170;8.596;2023-07-09T08:10:45;5.47;;;3.53;;
21661;SDS011;10992;48.170;8.596;2023-07-09T08:13:11;5.90;;;3.20;;
21661;SDS011;10992;48.170;8.596;2023-07-09T08:15:40;4.88;;;2.60;;
21661;SDS011;10992;48.170;8.596;2023-07-09T08:18:06;3.85;;;2.67;;
21661;SDS011;10992;48.170;8.596;2023-07-09T08:20:34;6.90;;;3.33;;
21661;SDS011;10992;48.170;8.596;2023-07-09T08:23:01;5.03;;;2.83;;
21661;SDS011;10992;48.170;8.596;2023-07-09T08:25:29;3.47;;;2.80;;
21661;SDS011;10992;48.170;8.596;2023-07-09T08:27:55;6.10;;;2.75;;
21661;SDS011;10992;48.170;8.596;2023-07-09T08:30:23;4.35;;;3.22;;
21661;SDS011;10992;48.170;8.596;2023-07-09T08:32:49;5.57;;;2.85;;
21661;SDS011;10992;48.170;8.596;2023-07-09T08:35:16;4.53;;;2.80;;
21661;SDS011;10992;48.170;8.596;2023-07-09T08:37:46;6.82;;;3.10;;
21661;SDS011;10992;48.170;8.596;2023-07-09T08:40:14;5.93;;;3.58;;
21661;SDS011;10992;48.170;8.596;2023-07-09T08:42:43;4.25;;;3.03;;
21661;SDS011;10992;48.170;8.596;2023-07-09T08:50:42;5.60;;;3.08;;
21661;SDS011;10992;48.170;8.596;2023-07-09T08:53:25;5.38;;;2.67;;
21661;SDS011;10992;48.170;8.596;2023-07-09T08:55:57;6.05;;;2.83;;
21661;SDS011;10992;48.170;8.596;2023-07-09T08:58:25;4.75;;;2.75;;
21661;SDS011;10992;48.170;8.596;2023-07-09T09:01:03;4.05;;;2.80;;
21661;SDS011;10992;48.170;8.596;2023-07-09T09:03:40;6.55;;;2.70;;
21661;SDS011;10992;48.170;8.596;2023-07-09T09:06:27;5.22;;;2.53;;
21661;SDS011;10992;48.170;8.596;2023-07-09T09:11:53;6.03;;;3.20;;
21661;SDS011;10992;48.170;8.596;2023-07-09T09:14:39;3.90;;;2.60;;
21661;SDS011;10992;48.170;8.596;2023-07-09T09:17:17;4.30;;;3.10;;
21661;SDS011;10992;48.170;8.596;2023-07-09T09:19:47;4.53;;;3.30;;
21661;SDS011;10992;48.170;8.596;2023-07-09T09:22:22;4.15;;;2.72;;
21661;SDS011;10992;48.170;8.596;2023-07-09T09:25:03;6.53;;;3.03;;
21661;SDS011;10992;48.170;8.596;2023-07-09T09:27:42;3.33;;;2.63;;
21661;SDS011;10992;48.170;8.596;2023-07-09T09:30:16;4.00;;;2.50;;
21661;SDS011;10992;48.170;8.596;2023-07-09T09:32:47;6.25;;;2.78;;
21661;SDS011;10992;48.170;8.596;2023-07-09T09:35:25;3.15;;;2.30;;
21661;SDS011;10992;48.170;8.596;2023-07-09T09:37:55;7.72;;;3.08;;
21661;SDS011;10992;48.170;8.596;2023-07-09T09:40:24;6.25;;;2.88;;
21661;SDS011;10992;48.170;8.596;2023-07-09T09:42:54;4.50;;;2.90;;
21661;SDS011;10992;48.170;8.596;2023-07-09T09:45:28;3.83;;;2.25;;
21661;SDS011;10992;48.170;8.596;2023-07-09T09:48:00;4.32;;;2.60;;
21661;SDS011;10992;48.170;8.596;2023-07-09T09:50:32;8.98;;;2.67;;
21661;SDS011;10992;48.170;8.596;2023-07-09T09:52:59;5.63;;;2.92;;
21661;SDS011;10992;48.170;8.596;2023-07-09T09:55:29;4.63;;;2.60;;
21661;SDS011;10992;48.170;8.596;2023-07-09T09:57:57;3.55;;;2.20;;
21661;SDS011;10992;48.170;8.596;2023-07-09T10:00:24;3.90;;;2.47;;
21661;SDS011;10992;48.170;8.596;2023-07-09T10:02:57;5.00;;;2.30;;
21661;SDS011;10992;48.170;8.596;2023-07-09T10:06:06;4.85;;;2.40;;
21661;SDS011;10992;48.170;8.596;2023-07-09T10:11:16;4.00;;;2.50;;
21661;SDS011;10992;48.170;8.596;2023-07-09T10:13:53;3.63;;;2.45;;
21661;SDS011;10992;48.170;8.596;2023-07-09T10:16:42;4.78;;;2.20;;
21661;SDS011;10992;48.170;8.596;2023-07-09T10:19:17;4.30;;;2.35;;
21661;SDS011;10992;48.170;8.596;2023-07-09T10:21:54;5.40;;;2.33;;
21661;SDS011;10992;48.170;8.596;2023-07-09T10:27:08;3.63;;;2.28;;
21661;SDS011;10992;48.170;8.596;2023-07-09T10:35:04;3.80;;;2.45;;
21661;SDS011;10992;48.170;8.596;2023-07-09T10:37:52;3.60;;;2.40;;
21661;SDS011;10992;48.170;8.596;2023-07-09T10:41:00;4.90;;;3.00;;
21661;SDS011;10992;48.170;8.596;2023-07-09T10:43:54;3.72;;;2.30;;
21661;SDS011;10992;48.170;8.596;2023-07-09T10:46:35;3.30;;;2.63;;
21661;SDS011;10992;48.170;8.596;2023-07-09T10:49:05;3.72;;;2.65;;
21661;SDS011;10992;48.170;8.596;2023-07-09T10:51:39;5.35;;;2.67;;
21661;SDS011;10992;48.170;8.596;2023-07-09T10:54:35;4.20;;;2.70;;
21661;SDS011;10992;48.170;8.596;2023-07-09T10:57:16;4.97;;;2.90;;
21661;SDS011;10992;48.170;8.596;2023-07-09T10:59:48;4.05;;;2.70;;
21661;SDS011;10992;48.170;8.596;2023-07-09T11:02:18;4.13;;;2.65;;
21661;SDS011;10992;48.170;8.596;2023-07-09T11:04:56;5.07;;;2.65;;
21661;SDS011;10992;48.170;8.596;2023-07-09T11:10:11;4.32;;;2.60;;
21661;SDS011;10992;48.170;8.596;2023-07-09T11:12:43;5.28;;;2.50;;
21661;SDS011;10992;48.170;8.596;2023-07-09T11:15:15;5.78;;;3.00;;
21661;SDS011;10992;48.170;8.596;2023-07-09T11:17:57;5.05;;;2.70;;
21661;SDS011;10992;48.170;8.596;2023-07-09T11:20:30;4.35;;;2.72;;
21661;SDS011;10992;48.170;8.596;2023-07-09T11:23:01;6.63;;;2.60;;
21661;SDS011;10992;48.170;8.596;2023-07-09T11:25:46;4.68;;;3.00;;
21661;SDS011;10992;48.170;8.596;2023-07-09T11:28:14;3.40;;;2.40;;
21661;SDS011;10992;48.170;8.596;2023-07-09T11:33:28;3.85;;;2.63;;
21661;SDS011;10992;48.170;8.596;2023-07-09T11:36:11;6.88;;;2.92;;
21661;SDS011;10992;48.170;8.596;2023-07-09T11:38:51;5.00;;;2.72;;
21661;SDS011;10992;48.170;8.596;2023-07-09T11:44:02;3.72;;;2.53;;
21661;SDS011;10992;48.170;8.596;2023-07-09T11:46:36;5.47;;;2.70;;
21661;SDS011;10992;48.170;8.596;2023-07-09T11:49:14;3.25;;;2.53;;
21661;SDS011;10992;48.170;8.596;2023-07-09T11:51:49;4.05;;;2.30;;
21661;SDS011;10992;48.170;8.596;2023-07-09T11:54:20;4.75;;;2.58;;
21661;SDS011;10992;48.170;8.596;2023-07-09T11:56:57;3.35;;;2.22;;
21661;SDS011;10992;48.170;8.596;2023-07-09T11:59:26;6.05;;;2.78;;
21661;SDS011;10992;48.170;8.596;2023-07-09T12:01:53;4.70;;;2.85;;
21661;SDS011;10992;48.170;8.596;2023-07-09T12:04:22;3.28;;;2.50;;
21661;SDS011;10992;48.170;8.596;2023-07-09T12:06:57;5.50;;;2.83;;
21661;SDS011;10992;48.170;8.596;2023-07-09T12:09:31;6.10;;;2.50;;
21661;SDS011;10992;48.170;8.596;2023-07-09T12:12:03;6.07;;;2.53;;
21661;SDS011;10992;48.170;8.596;2023-07-09T12:14:31;4.30;;;2.60;;
21661;SDS011;10992;48.170;8.596;2023-07-09T12:16:58;4.78;;;2.88;;
21661;SDS011;10992;48.170;8.596;2023-07-09T12:19:28;5.28;;;2.88;;
21661;SDS011;10992;48.170;8.596;2023-07-09T12:21:57;5.80;;;2.50;;
21661;SDS011;10992;48.170;8.596;2023-07-09T12:24:35;5.18;;;2.45;;
21661;SDS011;10992;48.170;8.596;2023-07-09T12:27:18;7.85;;;2.70;;
21661;SDS011;10992;48.170;8.596;2023-07-09T12:29:45;7.22;;;2.72;;
21661;SDS011;10992;48.170;8.596;2023-07-09T12:32:16;4.55;;;2.50;;
21661;SDS011;10992;48.170;8.596;2023-07-09T12:34:47;5.18;;;2.30;;
21661;SDS011;10992;48.170;8.596;2023-07-09T12:37:18;4.80;;;2.70;;
21661;SDS011;10992;48.170;8.596;2023-07-09T12:39:47;5.38;;;2.67;;
21661;SDS011;10992;48.170;8.596;2023-07-09T12:42:16;5.80;;;2.50;;
21661;SDS011;10992;48.170;8.596;2023-07-09T12:44:46;6.57;;;2.55;;
21661;SDS011;10992;48.170;8.596;2023-07-09T12:47:15;4.43;;;2.35;;
21661;SDS011;10992;48.170;8.596;2023-07-09T12:49:44;5.30;;;2.60;;
21661;SDS011;10992;48.170;8.596;2023-07-09T12:52:17;3.55;;;2.35;;
21661;SDS011;10992;48.170;8.596;2023-07-09T12:54:55;5.07;;;2.25;;
21661;SDS011;10992;48.170;8.596;2023-07-09T12:57:23;5.07;;;2.35;;
21661;SDS011;10992;48.170;8.596;2023-07-09T12:59:53;5.25;;;2.45;;
21661;SDS011;10992;48.170;8.596;2023-07-09T13:02:28;4.75;;;2.20;;
21661;SDS011;10992;48.170;8.596;2023-07-09T13:05:06;2.60;;;2.20;;
21661;SDS011;10992;48.170;8.596;2023-07-09T13:07:46;5.53;;;2.38;;
21661;SDS011;10992;48.170;8.596;2023-07-09T13:10:21;5.55;;;2.72;;
21661;SDS011;10992;48.170;8.596;2023-07-09T13:12:50;5.10;;;2.35;;
21661;SDS011;10992;48.170;8.596;2023-07-09T13:15:28;3.72;;;2.30;;
21661;SDS011;10992;48.170;8.596;2023-07-09T13:17:59;3.83;;;2.60;;
21661;SDS011;10992;48.170;8.596;2023-07-09T13:20:29;3.17;;;2.40;;
21661;SDS011;10992;48.170;8.596;2023-07-09T13:22:57;5.30;;;2.95;;
21661;SDS011;10992;48.170;8.596;2023-07-09T13:25:24;6.00;;;2.40;;
21661;SDS011;10992;48.170;8.596;2023-07-09T13:28:14;6.00;;;2.70;;
21661;SDS011;10992;48.170;8.596;2023-07-09T13:30:43;4.95;;;2.65;;
21661;SDS011;10992;48.170;8.596;2023-07-09T13:33:10;4.25;;;2.50;;
21661;SDS011;10992;48.170;8.596;2023-07-09T13:35:37;6.00;;;2.55;;
21661;SDS011;10992;48.170;8.596;2023-07-09T13:38:17;5.00;;;2.40;;
21661;SDS011;10992;48.170;8.596;2023-07-09T13:40:47;5.05;;;3.00;;
21661;SDS011;10992;48.170;8.596;2023-07-09T13:43:18;4.70;;;2.78;;
21661;SDS011;10992;48.170;8.596;2023-07-09T13:46:06;4.43;;;2.08;;
21661;SDS011;10992;48.170;8.596;2023-07-09T13:48:34;3.85;;;2.55;;
21661;SDS011;10992;48.170;8.596;2023-07-09T13:51:05;4.70;;;2.60;;
21661;SDS011;10992;48.170;8.596;2023-07-09T13:53:41;8.52;;;2.55;;
21661;SDS011;10992;48.170;8.596;2023-07-09T13:56:09;6.38;;;2.40;;
21661;SDS011;10992;48.170;8.596;2023-07-09T13:58:36;3.72;;;2.53;;
21661;SDS011;10992;48.170;8.596;2023-07-09T14:01:09;4.43;;;2.58;;
21661;SDS011;10992;48.170;8.596;2023-07-09T14:03:41;5.45;;;2.40;;
21661;SDS011;10992;48.170;8.596;2023-07-09T14:06:10;5.18;;;2.75;;
21661;SDS011;10992;48.170;8.596;2023-07-09T14:08:38;4.82;;;2.70;;
21661;SDS011;10992;48.170;8.596;2023-07-09T14:11:10;5.55;;;2.22;;
21661;SDS011;10992;48.170;8.596;2023-07-09T14:13:38;5.00;;;2.67;;
21661;SDS011;10992;48.170;8.596;2023-07-09T14:16:06;4.68;;;2.30;;
21661;SDS011;10992;48.170;8.596;2023-07-09T14:18:37;5.90;;;2.58;;
21661;SDS011;10992;48.170;8.596;2023-07-09T14:21:15;6.43;;;2.80;;
21661;SDS011;10992;48.170;8.596;2023-07-09T14:23:45;5.00;;;2.95;;
21661;SDS011;10992;48.170;8.596;2023-07-09T14:26:11;4.72;;;2.53;;
21661;SDS011;10992;48.170;8.596;2023-07-09T14:28:39;6.28;;;2.83;;
21661;SDS011;10992;48.170;8.596;2023-07-09T14:31:25;3.58;;;2.15;;
21661;SDS011;10992;48.170;8.596;2023-07-09T14:34:15;3.60;;;2.60;;
21661;SDS011;10992;48.170;8.596;2023-07-09T14:36:41;5.57;;;2.80;;
21661;SDS011;10992;48.170;8.596;2023-07-09T14:39:11;7.25;;;2.78;;
21661;SDS011;10992;48.170;8.596;2023-07-09T14:41:38;7.70;;;2.80;;
21661;SDS011;10992;48.170;8.596;2023-07-09T14:44:15;6.07;;;3.22;;
21661;SDS011;10992;48.170;8.596;2023-07-09T14:46:51;3.28;;;2.60;;
21661;SDS011;10992;48.170;8.596;2023-07-09T14:49:19;6.68;;;2.88;;
21661;SDS011;10992;48.170;8.596;2023-07-09T14:51:46;4.60;;;2.38;;
21661;SDS011;10992;48.170;8.596;2023-07-09T14:54:17;7.68;;;2.67;;
21661;SDS011;10992;48.170;8.596;2023-07-09T14:56:50;6.45;;;2.20;;
21661;SDS011;10992;48.170;8.596;2023-07-09T14:59:18;5.60;;;2.83;;
21661;SDS011;10992;48.170;8.596;2023-07-09T15:01:46;5.55;;;2.55;;
21661;SDS011;10992;48.170;8.596;2023-07-09T15:06:55;4.43;;;2.40;;
21661;SDS011;10992;48.170;8.596;2023-07-09T15:09:24;8.95;;;2.67;;
21661;SDS011;10992;48.170;8.596;2023-07-09T15:11:58;5.18;;;2.70;;
21661;SDS011;10992;48.170;8.596;2023-07-09T15:14:26;4.88;;;2.65;;
21661;SDS011;10992;48.170;8.596;2023-07-09T15:16:54;5.60;;;2.67;;
21661;SDS011;10992;48.170;8.596;2023-07-09T15:19:26;5.75;;;2.70;;
21661;SDS011;10992;48.170;8.596;2023-07-09T15:21:53;5.45;;;2.58;;
21661;SDS011;10992;48.170;8.596;2023-07-09T15:24:22;4.22;;;2.22;;
21661;SDS011;10992;48.170;8.596;2023-07-09T15:26:59;3.38;;;2.10;;
21661;SDS011;10992;48.170;8.596;2023-07-09T15:29:28;4.95;;;2.22;;
21661;SDS011;10992;48.170;8.596;2023-07-09T15:31:55;5.00;;;2.47;;
21661;SDS011;10992;48.170;8.596;2023-07-09T15:34:22;7.38;;;2.95;;
21661;SDS011;10992;48.170;8.596;2023-07-09T15:36:50;4.60;;;2.45;;
21661;SDS011;10992;48.170;8.596;2023-07-09T15:39:19;5.63;;;2.40;;